This is the latest recevied weather packets stored in our database for station/object VK4SSH. If no packets are shown the sender has not sent any weather packets the latest 10 day(s).
| Time | Temp. | Humidity | Pressure | Rain* | Wind** | Luminosity | Snow |
|---|---|---|---|---|---|---|---|
| 1777526726 | 19.44° C | 96% | - | 6.1 mm | - | - | - |
| 1777526126 | 21.11° C | 93% | - | 4.06 mm | - | - | - |
| 1777525526 | 22.22° C | 84% | - | 0 mm | - | - | - |
| 1777524926 | 22.78° C | 80% | - | 0 mm | - | - | - |
| 1777524326 | 22.78° C | 77% | - | 0 mm | - | - | - |
| 1777523726 | 22.78° C | 76% | - | 0 mm | - | - | - |
| 1777523126 | 22.22° C | 77% | - | 0 mm | - | - | - |
| 1777522526 | 21.67° C | 78% | - | 0 mm | - | - | - |
| 1777521926 | 21.67° C | 78% | - | 0 mm | - | - | - |
| 1777521326 | 22.78° C | 76% | - | 0 mm | - | - | - |
| 1777520726 | 22.78° C | 73% | - | 0 mm | - | - | - |
| 1777520126 | 22.22° C | 74% | - | 0 mm | - | - | - |
| 1777519526 | 22.22° C | 75% | - | 0 mm | - | - | - |
| 1777518926 | 21.67° C | 78% | - | 0 mm | - | - | - |
| 1777518326 | 22.78° C | 80% | - | 0 mm | - | - | - |
| 1777517726 | 23.33° C | 76% | - | 0 mm | - | - | - |
| 1777517126 | 23.89° C | 74% | - | 0 mm | - | - | - |
| 1777516526 | 23.89° C | 72% | - | 0 mm | - | - | - |
| 1777515926 | 23.89° C | 67% | - | 0 mm | - | - | - |
| 1777515326 | 23.89° C | 68% | - | 0 mm | - | - | - |
| 1777514726 | 23.33° C | 69% | - | 0 mm | - | - | - |
| 1777514126 | 22.78° C | 70% | - | 0 mm | - | - | - |
| 1777513526 | 22.78° C | 72% | - | 0 mm | - | - | - |
| 1777512926 | 22.78° C | 74% | - | 0 mm | - | - | - |
| 1777512326 | 23.33° C | 72% | - | 0 mm | - | - | - |
* Rain latest hour (hover to see other rain measurements)
** Current wind speed in m/s (hover to see current wind gust speed)